Bryce Canyon, Utah
Current Conditions -  °F | °C
As of 10:53 PM on Friday 28 Nov 2014 (Local Time) from KBCE Reporting Station
Clear Clear  
Wind Chill: 16°   Ceiling: Unl
Heat Index: 25°   Visibility: 10mi
Dew Point: 10°   Wind: 9mph
Humidity: 53%   Direction: 250°WSW
Pressure: 30.06"   Gusts: NA
Location:  37.63°N, 112.17°W
Report Text: KBCE 290553Z AUTO 25008KT 10SM CLR M04/M12 A3006 RMK AO2 SLP128 T10391122 10100 21067 58009
Loading
Personal Weather Stations






























Interactive Weather Map New forecast layout! Learn more

10-Day Weather Forecast

Advertisements
Track Severe Weather on mobile